Time;durP1;ratioP1;P1;durP2;ratioP2;P2;SDS_P1;SDS_P2;PMS_P1;PMS_P2;Temp;Humidity;BMP_temperature;BMP_pressure;BME280_temperature;BME280_humidity;BME280_pressure;Samples;Min_cycle;Max_cycle;Signal;HPM_P1;HPM_P2
2021/03/09 00:02:00;;;;;;;1.80;0.30;;;;;;;;;;5037378;28;20610;-60
2021/03/09 00:04:27;;;;;;;0.00;0.00;;;;;;;;;;5036404;28;20530;-59
2021/03/09 00:06:53;;;;;;;2.13;1.10;;;;;;;;;;5032060;28;20325;-59
2021/03/09 00:09:21;;;;;;;0.83;0.83;;;;;;;;;;5034346;28;20175;-60
2021/03/09 00:11:47;;;;;;;0.20;0.20;;;;;;;;;;5034703;28;20202;-60
2021/03/09 00:14:19;;;;;;;0.00;0.00;;;;;;;;;;5033523;28;20236;-59
2021/03/09 00:16:45;;;;;;;0.10;0.10;;;;;;;;;;5034436;28;20199;-60
2021/03/09 00:19:12;;;;;;;0.13;0.13;;;;;;;;;;5034064;28;20187;-59
2021/03/09 00:21:40;;;;;;;1.47;0.63;;;;;;;;;;5032485;28;20212;-59
2021/03/09 00:24:07;;;;;;;0.03;0.03;;;;;;;;;;5033349;28;20187;-59
2021/03/09 00:26:35;;;;;;;0.10;0.10;;;;;;;;;;5031850;28;20227;-58
2021/03/09 00:29:01;;;;;;;0.00;0.00;;;;;;;;;;5030792;28;20199;-59
2021/03/09 00:31:30;;;;;;;3.20;0.83;;;;;;;;;;5031618;28;20901;-60
2021/03/09 00:33:58;;;;;;;0.77;0.60;;;;;;;;;;5036839;28;20960;-58
2021/03/09 00:36:26;;;;;;;1.40;0.67;;;;;;;;;;5037064;28;20217;-59
2021/03/09 00:38:54;;;;;;;3.00;0.50;;;;;;;;;;5034512;28;20190;-59
2021/03/09 00:41:21;;;;;;;2.00;0.87;;;;;;;;;;5047192;28;20199;-59
2021/03/09 00:43:50;;;;;;;0.10;0.10;;;;;;;;;;5040364;28;20822;-59
2021/03/09 00:46:16;;;;;;;2.77;0.63;;;;;;;;;;5037589;28;20229;-59
2021/03/09 00:48:44;;;;;;;3.47;1.27;;;;;;;;;;5033399;28;20191;-59
2021/03/09 00:51:11;;;;;;;0.73;0.73;;;;;;;;;;5037939;28;20229;-59
2021/03/09 00:53:40;;;;;;;0.00;0.00;;;;;;;;;;5037982;28;20278;-59
2021/03/09 00:56:07;;;;;;;0.50;0.50;;;;;;;;;;5040125;28;20218;-58
2021/03/09 00:58:34;;;;;;;0.20;0.20;;;;;;;;;;5034630;28;20341;-59
2021/03/09 01:01:00;;;;;;;0.00;0.00;;;;;;;;;;5033622;28;20282;-59
2021/03/09 01:03:34;;;;;;;0.00;0.00;;;;;;;;;;5035086;28;20198;-59
2021/03/09 01:06:01;;;;;;;0.77;0.20;;;;;;;;;;5041472;28;20199;-59
2021/03/09 01:08:28;;;;;;;0.00;0.00;;;;;;;;;;5036763;28;20303;-59
2021/03/09 01:10:56;;;;;;;0.30;0.30;;;;;;;;;;5036697;28;20201;-59
2021/03/09 01:13:22;;;;;;;0.40;0.40;;;;;;;;;;5037617;28;20191;-59
2021/03/09 01:15:49;;;;;;;0.00;0.00;;;;;;;;;;5038555;28;20175;-59
2021/03/09 01:18:17;;;;;;;0.00;0.00;;;;;;;;;;5031601;28;20187;-60
2021/03/09 01:20:43;;;;;;;1.03;1.03;;;;;;;;;;5026957;28;20289;-60
2021/03/09 01:23:11;;;;;;;2.13;0.43;;;;;;;;;;5033276;28;20194;-59
2021/03/09 01:25:38;;;;;;;0.20;0.20;;;;;;;;;;5033562;28;20192;-59
2021/03/09 01:28:06;;;;;;;0.00;0.00;;;;;;;;;;5035430;28;20235;-59
2021/03/09 01:30:32;;;;;;;0.03;0.03;;;;;;;;;;5037604;28;20203;-59
2021/03/09 01:32:59;;;;;;;0.10;0.10;;;;;;;;;;5036395;28;21031;-59
2021/03/09 01:35:25;;;;;;;3.60;0.20;;;;;;;;;;5038485;28;20241;-60
2021/03/09 01:37:52;;;;;;;0.10;0.10;;;;;;;;;;5039380;28;20218;-59
2021/03/09 01:40:22;;;;;;;0.20;0.20;;;;;;;;;;5037853;28;20233;-59
2021/03/09 01:42:49;;;;;;;0.33;0.33;;;;;;;;;;5040759;28;20205;-60
2021/03/09 01:45:16;;;;;;;0.20;0.20;;;;;;;;;;5037406;28;20545;-59
2021/03/09 01:47:43;;;;;;;0.00;0.00;;;;;;;;;;5037714;28;20222;-59
2021/03/09 01:50:11;;;;;;;17.83;4.53;;;;;;;;;;5035194;28;20278;-58
2021/03/09 01:52:40;;;;;;;0.77;0.50;;;;;;;;;;5034733;28;20240;-59
2021/03/09 01:55:10;;;;;;;0.97;0.97;;;;;;;;;;5038680;28;20271;-58
2021/03/09 01:57:40;;;;;;;0.40;0.40;;;;;;;;;;5039506;28;20615;-58
2021/03/09 02:00:08;;;;;;;0.00;0.00;;;;;;;;;;5038541;28;20195;-59
2021/03/09 02:02:35;;;;;;;1.90;0.20;;;;;;;;;;5031133;28;20203;-59
2021/03/09 02:05:02;;;;;;;0.20;0.20;;;;;;;;;;5035334;28;20202;-59
2021/03/09 02:07:29;;;;;;;1.30;1.20;;;;;;;;;;5039320;28;20217;-59
2021/03/09 02:09:56;;;;;;;0.00;0.00;;;;;;;;;;5039212;28;20626;-58
2021/03/09 02:12:45;;;;;;;0.10;0.10;;;;;;;;;;5032031;28;20186;-59
2021/03/09 02:15:20;;;;;;;1.70;0.63;;;;;;;;;;5021526;28;20284;-59
2021/03/09 02:17:52;;;;;;;0.83;0.40;;;;;;;;;;5033902;28;20563;-58
2021/03/09 02:20:31;;;;;;;3.87;0.40;;;;;;;;;;5031078;28;21242;-58
2021/03/09 02:23:01;;;;;;;0.53;0.20;;;;;;;;;;5033515;28;20187;-59
2021/03/09 02:25:43;;;;;;;0.10;0.10;;;;;;;;;;5033716;28;20688;-58
2021/03/09 02:28:24;;;;;;;0.10;0.10;;;;;;;;;;5037057;28;20222;-58
2021/03/09 02:30:57;;;;;;;2.07;0.10;;;;;;;;;;5032449;28;20206;-59
2021/03/09 02:33:30;;;;;;;0.00;0.00;;;;;;;;;;5031854;28;20194;-59
2021/03/09 02:36:20;;;;;;;0.33;0.33;;;;;;;;;;5029155;28;20191;-59
2021/03/09 02:38:54;;;;;;;1.30;0.20;;;;;;;;;;5036218;28;20199;-59
2021/03/09 02:41:24;;;;;;;0.23;0.23;;;;;;;;;;5033733;28;20219;-58
2021/03/09 02:43:53;;;;;;;0.07;0.07;;;;;;;;;;5037587;28;20187;-59
2021/03/09 02:46:23;;;;;;;0.30;0.20;;;;;;;;;;5040232;28;20269;-58
2021/03/09 02:48:50;;;;;;;0.57;0.47;;;;;;;;;;5035521;28;20716;-58
2021/03/09 02:51:16;;;;;;;0.30;0.30;;;;;;;;;;5037534;28;20284;-58
2021/03/09 02:53:51;;;;;;;0.50;0.50;;;;;;;;;;5036704;28;20281;-59
2021/03/09 02:56:20;;;;;;;2.53;0.40;;;;;;;;;;5041818;28;20649;-58
2021/03/09 02:58:49;;;;;;;2.33;0.77;;;;;;;;;;5038232;28;20194;-58
2021/03/09 03:01:19;;;;;;;0.83;0.40;;;;;;;;;;5037856;28;20192;-59
2021/03/09 03:03:47;;;;;;;8.73;1.03;;;;;;;;;;5039528;28;20183;-58
2021/03/09 03:06:16;;;;;;;6.83;0.60;;;;;;;;;;5036873;28;20702;-58
2021/03/09 03:08:44;;;;;;;2.27;0.70;;;;;;;;;;5035585;28;20195;-59
2021/03/09 03:11:11;;;;;;;2.17;0.20;;;;;;;;;;5040979;28;20183;-59
2021/03/09 03:13:42;;;;;;;3.00;0.40;;;;;;;;;;5035017;28;20183;-59
2021/03/09 03:16:12;;;;;;;3.33;3.03;;;;;;;;;;5042508;28;20552;-59
2021/03/09 03:18:43;;;;;;;7.93;0.60;;;;;;;;;;5032520;28;20240;-59
2021/03/09 03:21:10;;;;;;;0.00;0.00;;;;;;;;;;5036724;28;20252;-58
2021/03/09 03:23:37;;;;;;;0.00;0.00;;;;;;;;;;5034048;28;20210;-58
2021/03/09 03:26:07;;;;;;;0.00;0.00;;;;;;;;;;5033300;28;20191;-58
2021/03/09 03:28:35;;;;;;;0.30;0.30;;;;;;;;;;5033588;28;20221;-58
2021/03/09 03:31:03;;;;;;;0.07;0.07;;;;;;;;;;5033162;28;20207;-58
2021/03/09 03:33:30;;;;;;;0.03;0.03;;;;;;;;;;5035289;28;20259;-58
2021/03/09 03:36:04;;;;;;;2.77;0.53;;;;;;;;;;5032917;28;20194;-57
2021/03/09 03:38:34;;;;;;;0.07;0.07;;;;;;;;;;5031572;28;20187;-58
2021/03/09 03:41:04;;;;;;;1.00;0.30;;;;;;;;;;5038020;28;20202;-58
2021/03/09 03:43:33;;;;;;;3.70;0.57;;;;;;;;;;5037161;28;20205;-58
2021/03/09 03:46:00;;;;;;;3.10;0.67;;;;;;;;;;5032783;28;20265;-58
2021/03/09 03:48:27;;;;;;;0.10;0.10;;;;;;;;;;5036285;28;21025;-58
2021/03/09 03:50:55;;;;;;;0.00;0.00;;;;;;;;;;5039936;28;20195;-58
2021/03/09 03:53:24;;;;;;;0.10;0.10;;;;;;;;;;5040704;28;20195;-58
2021/03/09 03:55:58;;;;;;;0.10;0.10;;;;;;;;;;5038762;28;20658;-58
2021/03/09 03:58:40;;;;;;;2.03;1.93;;;;;;;;;;5033139;28;20286;-58
2021/03/09 04:01:07;;;;;;;0.10;0.10;;;;;;;;;;5039539;28;20706;-58
2021/03/09 04:03:34;;;;;;;0.67;0.47;;;;;;;;;;5035289;28;20202;-58
2021/03/09 04:06:03;;;;;;;0.10;0.03;;;;;;;;;;5035113;28;20194;-58
2021/03/09 04:08:31;;;;;;;0.10;0.10;;;;;;;;;;5035471;28;20211;-58
2021/03/09 04:10:58;;;;;;;2.30;0.30;;;;;;;;;;5039037;28;20199;-57
2021/03/09 04:13:25;;;;;;;0.30;0.30;;;;;;;;;;5041735;28;20202;-58
2021/03/09 04:15:55;;;;;;;1.97;0.77;;;;;;;;;;5037827;28;20398;-58
2021/03/09 04:18:22;;;;;;;0.00;0.00;;;;;;;;;;5037660;28;20733;-58
2021/03/09 04:20:56;;;;;;;0.13;0.13;;;;;;;;;;5033802;28;20175;-58
2021/03/09 04:23:23;;;;;;;0.37;0.37;;;;;;;;;;5031596;28;20186;-58
2021/03/09 04:25:50;;;;;;;0.13;0.13;;;;;;;;;;5041138;28;20539;-58
2021/03/09 04:28:17;;;;;;;0.43;0.43;;;;;;;;;;5041269;28;20215;-58
2021/03/09 04:30:44;;;;;;;0.10;0.10;;;;;;;;;;5037937;28;20183;-58
2021/03/09 04:33:11;;;;;;;0.10;0.10;;;;;;;;;;5039099;28;20195;-58
2021/03/09 04:35:40;;;;;;;0.30;0.30;;;;;;;;;;5034343;28;20213;-57
2021/03/09 04:38:07;;;;;;;5.00;0.63;;;;;;;;;;5033778;28;20920;-59
2021/03/09 04:40:34;;;;;;;0.23;0.23;;;;;;;;;;5036308;28;20194;-58
2021/03/09 04:43:01;;;;;;;0.10;0.10;;;;;;;;;;5037166;28;20218;-58
2021/03/09 04:45:34;;;;;;;0.23;0.23;;;;;;;;;;5038867;28;20198;-59
2021/03/09 04:48:02;;;;;;;0.03;0.03;;;;;;;;;;5033651;28;20640;-58
2021/03/09 04:50:31;;;;;;;0.10;0.10;;;;;;;;;;5037053;28;20558;-59
2021/03/09 04:53:00;;;;;;;0.20;0.20;;;;;;;;;;5034210;28;20191;-59
2021/03/09 04:55:30;;;;;;;0.10;0.10;;;;;;;;;;5033068;28;20285;-59
2021/03/09 04:57:56;;;;;;;0.10;0.10;;;;;;;;;;5031810;28;20182;-59
2021/03/09 05:00:23;;;;;;;0.00;0.00;;;;;;;;;;5031115;28;20205;-59
2021/03/09 05:02:51;;;;;;;1.13;1.13;;;;;;;;;;5029323;28;20309;-58
2021/03/09 13:49:38;;;;;;;0.50;0.40;;;;;;;;;;5072982;27;21263;-60
2021/03/09 13:52:05;;;;;;;0.00;0.00;;;;;;;;;;5058512;28;20787;-59
2021/03/09 13:54:31;;;;;;;0.00;0.00;;;;;;;;;;5058012;28;20186;-60
2021/03/09 13:56:58;;;;;;;0.40;0.30;;;;;;;;;;5052270;28;20224;-59
2021/03/09 13:59:25;;;;;;;0.10;0.10;;;;;;;;;;5057842;28;20187;-59
2021/03/09 14:01:51;;;;;;;0.00;0.00;;;;;;;;;;5057728;28;20195;-59
2021/03/09 14:04:18;;;;;;;0.00;0.00;;;;;;;;;;5057921;28;20191;-59
2021/03/09 14:06:44;;;;;;;4.20;0.53;;;;;;;;;;5058092;28;20186;-59
2021/03/09 14:09:12;;;;;;;0.00;0.00;;;;;;;;;;5057875;28;20946;-59
2021/03/09 14:11:38;;;;;;;0.17;0.07;;;;;;;;;;5057311;28;20332;-60
2021/03/09 14:14:07;;;;;;;1.73;0.30;;;;;;;;;;5056419;28;20533;-59
2021/03/09 14:16:35;;;;;;;0.13;0.13;;;;;;;;;;5056960;28;20183;-61
2021/03/09 14:19:01;;;;;;;0.13;0.00;;;;;;;;;;5057760;28;20837;-61
2021/03/09 14:21:28;;;;;;;0.20;0.00;;;;;;;;;;5056987;28;20187;-59
2021/03/09 14:23:54;;;;;;;0.00;0.00;;;;;;;;;;5057219;28;20649;-59
2021/03/09 14:26:21;;;;;;;0.00;0.00;;;;;;;;;;5058013;28;20191;-60
2021/03/09 14:28:48;;;;;;;0.00;0.00;;;;;;;;;;5055505;28;20209;-60
2021/03/09 14:31:14;;;;;;;0.10;0.10;;;;;;;;;;5055171;28;20193;-60
2021/03/09 14:33:42;;;;;;;0.00;0.00;;;;;;;;;;5054405;28;20264;-60
2021/03/09 14:36:08;;;;;;;3.37;0.67;;;;;;;;;;5054460;28;20190;-60
2021/03/09 14:38:36;;;;;;;1.47;0.30;;;;;;;;;;5050556;28;20244;-59
2021/03/09 14:41:07;;;;;;;0.40;0.03;;;;;;;;;;5055679;28;20205;-59
2021/03/09 14:43:33;;;;;;;0.50;0.20;;;;;;;;;;5052737;28;20183;-60
2021/03/09 14:46:00;;;;;;;0.00;0.00;;;;;;;;;;5055490;28;20205;-61
2021/03/09 14:48:27;;;;;;;0.10;0.10;;;;;;;;;;5053718;28;20285;-59
2021/03/09 14:50:54;;;;;;;0.60;0.60;;;;;;;;;;5054631;28;20183;-62
2021/03/09 14:53:21;;;;;;;0.30;0.27;;;;;;;;;;5058138;28;20183;-60
2021/03/09 14:55:49;;;;;;;1.80;0.00;;;;;;;;;;5054148;28;20187;-59
2021/03/09 14:58:15;;;;;;;1.70;0.33;;;;;;;;;;5048503;28;20179;-60
2021/03/09 15:00:42;;;;;;;0.20;0.03;;;;;;;;;;5038570;28;20647;-59
2021/03/09 15:03:09;;;;;;;0.13;0.03;;;;;;;;;;5042071;28;20203;-58
2021/03/09 15:05:36;;;;;;;0.00;0.00;;;;;;;;;;5043818;28;20214;-58
2021/03/09 15:08:02;;;;;;;0.73;0.73;;;;;;;;;;5042549;28;20856;-59
2021/03/09 15:10:29;;;;;;;0.00;0.00;;;;;;;;;;5043345;28;20184;-60
2021/03/09 15:12:55;;;;;;;0.40;0.10;;;;;;;;;;5042746;28;20192;-59
2021/03/09 15:15:22;;;;;;;1.40;0.63;;;;;;;;;;5042452;28;20185;-59
2021/03/09 15:17:49;;;;;;;0.83;0.40;;;;;;;;;;5042788;28;20216;-60
2021/03/09 15:20:16;;;;;;;0.00;0.00;;;;;;;;;;5043291;28;20192;-59
2021/03/09 15:22:43;;;;;;;0.00;0.00;;;;;;;;;;5043022;28;20188;-59
2021/03/09 15:25:11;;;;;;;0.10;0.10;;;;;;;;;;5042819;28;20504;-59
2021/03/09 15:27:38;;;;;;;0.00;0.00;;;;;;;;;;5042423;28;20208;-60
2021/03/09 15:30:08;;;;;;;0.43;0.10;;;;;;;;;;5041747;28;20550;-59
2021/03/09 15:32:35;;;;;;;0.10;0.10;;;;;;;;;;5043110;28;20220;-60
2021/03/09 15:35:02;;;;;;;0.10;0.10;;;;;;;;;;5042883;28;20267;-60
2021/03/09 15:37:29;;;;;;;0.63;0.10;;;;;;;;;;5042725;28;20289;-59
2021/03/09 15:39:55;;;;;;;0.00;0.00;;;;;;;;;;5042334;28;20195;-59
2021/03/09 15:42:22;;;;;;;1.13;0.40;;;;;;;;;;5042924;28;20203;-60
2021/03/09 15:44:49;;;;;;;0.17;0.00;;;;;;;;;;5043004;28;20189;-59
2021/03/09 15:47:15;;;;;;;0.10;0.00;;;;;;;;;;5042204;28;20187;-59
2021/03/09 15:49:43;;;;;;;0.00;0.00;;;;;;;;;;5042187;28;20188;-59
2021/03/09 15:52:09;;;;;;;0.20;0.20;;;;;;;;;;5042719;28;20194;-59
2021/03/09 15:54:36;;;;;;;1.10;0.70;;;;;;;;;;5042884;28;20195;-59
2021/03/09 15:57:03;;;;;;;0.10;0.10;;;;;;;;;;5041881;28;20225;-59
2021/03/09 15:59:30;;;;;;;0.00;0.00;;;;;;;;;;5043012;28;20369;-59
2021/03/09 16:01:56;;;;;;;0.00;0.00;;;;;;;;;;5042293;28;20310;-59
2021/03/09 16:04:23;;;;;;;1.47;0.30;;;;;;;;;;5041781;28;20194;-59
2021/03/09 16:06:49;;;;;;;0.97;0.43;;;;;;;;;;5042213;28;20194;-59
2021/03/09 16:09:16;;;;;;;0.50;0.10;;;;;;;;;;5042070;28;20204;-59
2021/03/09 16:11:43;;;;;;;2.20;0.10;;;;;;;;;;5040990;28;20236;-59
2021/03/09 16:14:09;;;;;;;0.00;0.00;;;;;;;;;;5042475;28;20195;-60
2021/03/09 16:16:36;;;;;;;0.00;0.00;;;;;;;;;;5040777;28;20948;-59
2021/03/09 16:19:02;;;;;;;0.00;0.00;;;;;;;;;;5042295;28;20287;-59
2021/03/09 16:21:29;;;;;;;0.77;0.60;;;;;;;;;;5041855;28;20201;-59
2021/03/09 16:23:58;;;;;;;3.70;3.53;;;;;;;;;;5041579;28;20553;-59
2021/03/09 16:26:24;;;;;;;3.30;0.73;;;;;;;;;;5042416;28;20187;-60
2021/03/09 16:28:51;;;;;;;0.10;0.10;;;;;;;;;;5042249;28;20215;-60
2021/03/09 16:31:17;;;;;;;0.17;0.17;;;;;;;;;;5041798;28;20185;-59
2021/03/09 16:33:44;;;;;;;0.57;0.57;;;;;;;;;;5041809;28;20196;-60
2021/03/09 16:36:10;;;;;;;0.00;0.00;;;;;;;;;;5036760;28;20185;-59
2021/03/09 16:38:37;;;;;;;0.47;0.10;;;;;;;;;;5038753;28;20761;-59
2021/03/09 16:41:03;;;;;;;0.00;0.00;;;;;;;;;;5041131;28;20864;-59
2021/03/09 16:43:30;;;;;;;2.17;0.00;;;;;;;;;;5041792;28;20200;-60
2021/03/09 16:45:56;;;;;;;0.00;0.00;;;;;;;;;;5042172;28;20200;-60
2021/03/09 16:48:23;;;;;;;0.10;0.10;;;;;;;;;;5040620;28;20232;-60
2021/03/09 16:50:49;;;;;;;2.53;0.57;;;;;;;;;;5039839;28;20187;-60
2021/03/09 16:53:16;;;;;;;2.90;1.90;;;;;;;;;;5040060;28;20245;-60
2021/03/09 16:55:43;;;;;;;0.00;0.00;;;;;;;;;;5040870;28;20203;-60
2021/03/09 16:58:09;;;;;;;0.20;0.20;;;;;;;;;;5041644;28;20191;-60
2021/03/09 17:00:36;;;;;;;0.00;0.00;;;;;;;;;;5041300;28;20693;-60
2021/03/09 17:03:03;;;;;;;0.27;0.10;;;;;;;;;;5040816;28;20890;-60
2021/03/09 17:05:30;;;;;;;0.00;0.00;;;;;;;;;;5040507;28;20185;-60
2021/03/09 17:07:57;;;;;;;1.43;0.20;;;;;;;;;;5040818;28;20212;-60
2021/03/09 17:10:23;;;;;;;0.00;0.00;;;;;;;;;;5040540;28;20183;-60
2021/03/09 17:12:53;;;;;;;3.10;0.50;;;;;;;;;;5040666;28;20622;-61
2021/03/09 17:15:20;;;;;;;0.77;0.30;;;;;;;;;;5040657;28;20197;-60
2021/03/09 17:17:46;;;;;;;0.57;0.40;;;;;;;;;;5041433;28;20187;-60
2021/03/09 17:20:14;;;;;;;2.20;0.20;;;;;;;;;;5040567;28;20210;-60
2021/03/09 17:22:41;;;;;;;0.83;0.47;;;;;;;;;;5040953;28;20191;-61
2021/03/09 17:25:08;;;;;;;1.57;0.27;;;;;;;;;;5041025;28;20188;-59
2021/03/09 17:27:38;;;;;;;0.73;0.30;;;;;;;;;;5040911;28;20200;-61
2021/03/09 17:30:05;;;;;;;2.63;0.40;;;;;;;;;;5040942;28;20187;-60
2021/03/09 17:32:31;;;;;;;0.20;0.20;;;;;;;;;;5040991;28;20184;-59
2021/03/09 17:34:58;;;;;;;8.23;1.53;;;;;;;;;;5040928;28;20189;-59
2021/03/09 17:37:25;;;;;;;1.70;0.57;;;;;;;;;;5041291;28;20699;-59
2021/03/09 17:39:51;;;;;;;0.27;0.27;;;;;;;;;;5039298;28;20179;-60
2021/03/09 17:42:18;;;;;;;1.60;0.63;;;;;;;;;;5038073;28;20179;-60
2021/03/09 17:44:49;;;;;;;0.00;0.00;;;;;;;;;;5041103;28;20180;-60
2021/03/09 17:47:17;;;;;;;0.97;0.40;;;;;;;;;;5040728;28;20270;-59
2021/03/09 17:49:43;;;;;;;4.27;2.43;;;;;;;;;;5041006;28;20359;-59
2021/03/09 17:52:12;;;;;;;6.20;0.77;;;;;;;;;;5039982;28;20179;-60
2021/03/09 17:54:39;;;;;;;2.63;0.27;;;;;;;;;;5040493;28;20210;-59
2021/03/09 17:57:06;;;;;;;0.03;0.03;;;;;;;;;;5039847;28;20835;-59
2021/03/09 17:59:33;;;;;;;0.83;0.40;;;;;;;;;;5040654;28;20183;-59
2021/03/09 18:02:00;;;;;;;3.50;0.43;;;;;;;;;;5041473;28;20188;-59
2021/03/09 18:04:27;;;;;;;5.87;0.77;;;;;;;;;;5040926;28;20190;-59
2021/03/09 18:06:53;;;;;;;1.60;0.10;;;;;;;;;;5040478;28;20670;-59
2021/03/09 18:09:20;;;;;;;0.53;0.13;;;;;;;;;;5041306;28;20212;-60
2021/03/09 18:11:47;;;;;;;1.07;0.87;;;;;;;;;;5041106;28;20184;-59
2021/03/09 18:14:13;;;;;;;1.07;0.17;;;;;;;;;;5040793;28;20826;-59
2021/03/09 18:16:40;;;;;;;0.00;0.00;;;;;;;;;;5040266;28;20885;-59
2021/03/09 18:19:08;;;;;;;0.00;0.00;;;;;;;;;;5040196;28;20180;-59
2021/03/09 18:21:34;;;;;;;0.53;0.37;;;;;;;;;;5040196;28;20192;-60
2021/03/09 18:24:04;;;;;;;1.23;0.30;;;;;;;;;;5040033;28;20183;-59
2021/03/09 18:26:31;;;;;;;0.00;0.00;;;;;;;;;;5040097;28;20282;-59
2021/03/09 18:28:58;;;;;;;0.60;0.60;;;;;;;;;;5040439;28;20257;-59
2021/03/09 18:31:25;;;;;;;0.00;0.00;;;;;;;;;;5038994;28;20176;-59
2021/03/09 18:33:51;;;;;;;0.00;0.00;;;;;;;;;;5039076;28;20183;-59
2021/03/09 18:36:19;;;;;;;0.10;0.10;;;;;;;;;;5043633;28;20176;-59
2021/03/09 18:38:47;;;;;;;0.00;0.00;;;;;;;;;;5043950;28;20195;-58
2021/03/09 18:41:14;;;;;;;0.87;0.10;;;;;;;;;;5043524;28;20251;-59
2021/03/09 18:43:41;;;;;;;0.53;0.43;;;;;;;;;;5043780;28;20192;-59
2021/03/09 18:46:08;;;;;;;0.00;0.00;;;;;;;;;;5043391;28;20578;-59
2021/03/09 18:48:35;;;;;;;0.00;0.00;;;;;;;;;;5043136;28;20227;-60
2021/03/09 18:51:01;;;;;;;0.17;0.10;;;;;;;;;;5043506;28;20195;-60
2021/03/09 18:53:28;;;;;;;0.60;0.27;;;;;;;;;;5043563;28;20193;-59
2021/03/09 18:55:55;;;;;;;0.60;0.50;;;;;;;;;;5043756;28;20651;-59
2021/03/09 18:58:22;;;;;;;2.50;0.20;;;;;;;;;;5043294;28;20249;-59
2021/03/09 19:00:48;;;;;;;0.00;0.00;;;;;;;;;;5043801;28;20190;-59
2021/03/09 19:03:15;;;;;;;0.30;0.30;;;;;;;;;;5043734;28;20202;-59
2021/03/09 19:05:41;;;;;;;1.40;0.13;;;;;;;;;;5043175;28;20192;-59
2021/03/09 19:08:08;;;;;;;4.47;0.60;;;;;;;;;;5043319;28;20211;-59
2021/03/09 19:10:35;;;;;;;1.30;1.20;;;;;;;;;;5043109;28;20791;-60
2021/03/09 19:13:02;;;;;;;0.67;0.67;;;;;;;;;;5043175;28;20181;-60
2021/03/09 19:15:30;;;;;;;5.80;2.03;;;;;;;;;;5042774;28;20188;-60
2021/03/09 19:17:56;;;;;;;0.47;0.47;;;;;;;;;;5043161;28;20282;-60
2021/03/09 19:20:23;;;;;;;1.13;0.43;;;;;;;;;;5042607;28;20195;-60
2021/03/09 19:22:49;;;;;;;0.30;0.30;;;;;;;;;;5044262;28;20411;-60
2021/03/09 19:25:16;;;;;;;0.00;0.00;;;;;;;;;;5042104;28;20187;-60
2021/03/09 19:27:42;;;;;;;1.53;0.40;;;;;;;;;;5042059;28;20748;-60
2021/03/09 19:30:09;;;;;;;1.60;1.60;;;;;;;;;;5041248;28;20180;-60
2021/03/09 19:32:37;;;;;;;0.50;0.50;;;;;;;;;;5042086;28;20176;-60
2021/03/09 19:35:04;;;;;;;1.80;0.63;;;;;;;;;;5041120;28;20278;-59
2021/03/09 19:37:31;;;;;;;0.00;0.00;;;;;;;;;;5040456;28;20736;-60
2021/03/09 19:40:04;;;;;;;0.10;0.10;;;;;;;;;;5041028;28;20187;-60
2021/03/09 19:42:31;;;;;;;0.20;0.20;;;;;;;;;;5041450;28;20295;-60
2021/03/09 19:44:57;;;;;;;0.27;0.27;;;;;;;;;;5040991;28;20278;-60
2021/03/09 19:47:24;;;;;;;2.53;1.07;;;;;;;;;;5042032;28;20182;-60
2021/03/09 19:49:51;;;;;;;0.10;0.10;;;;;;;;;;5043379;28;21055;-58
2021/03/09 19:52:18;;;;;;;0.03;0.03;;;;;;;;;;5042947;28;20237;-58
2021/03/09 19:54:45;;;;;;;0.00;0.00;;;;;;;;;;5043168;28;20205;-58
2021/03/09 19:57:12;;;;;;;0.20;0.20;;;;;;;;;;5042465;28;20167;-58
2021/03/09 19:59:39;;;;;;;0.20;0.20;;;;;;;;;;5041905;28;20194;-59
2021/03/09 20:02:05;;;;;;;0.20;0.10;;;;;;;;;;5040405;28;20257;-59
2021/03/09 20:04:33;;;;;;;2.53;0.40;;;;;;;;;;5043362;28;20187;-59
2021/03/09 20:07:20;;;;;;;7.13;1.27;;;;;;;;;;5042919;28;20190;-60
2021/03/09 20:09:47;;;;;;;0.00;0.00;;;;;;;;;;5041550;28;20671;-60
2021/03/09 20:12:14;;;;;;;4.33;0.53;;;;;;;;;;5042227;28;20191;-60
2021/03/09 20:14:41;;;;;;;0.10;0.10;;;;;;;;;;5042773;28;20276;-59
2021/03/09 20:17:08;;;;;;;0.00;0.00;;;;;;;;;;5042977;28;20217;-60
2021/03/09 20:19:34;;;;;;;0.27;0.27;;;;;;;;;;5036490;28;20415;-60
2021/03/09 20:22:01;;;;;;;0.30;0.27;;;;;;;;;;5042181;28;20702;-58
2021/03/09 20:24:28;;;;;;;0.03;0.03;;;;;;;;;;5041855;28;20222;-59
2021/03/09 20:26:54;;;;;;;0.33;0.33;;;;;;;;;;5042167;28;20283;-59
2021/03/09 20:29:21;;;;;;;0.63;0.63;;;;;;;;;;5042952;28;20204;-59
2021/03/09 20:31:48;;;;;;;2.33;0.77;;;;;;;;;;5037427;28;20187;-59
2021/03/09 20:34:14;;;;;;;0.57;0.50;;;;;;;;;;5041049;28;20238;-59
2021/03/09 20:36:41;;;;;;;0.10;0.10;;;;;;;;;;5040732;28;20190;-59
2021/03/09 20:39:09;;;;;;;1.43;0.80;;;;;;;;;;5039540;28;20182;-59
2021/03/09 20:41:36;;;;;;;0.10;0.10;;;;;;;;;;5040056;28;20202;-59
2021/03/09 20:44:02;;;;;;;0.20;0.20;;;;;;;;;;5040895;28;20191;-59
2021/03/09 20:46:29;;;;;;;0.10;0.10;;;;;;;;;;5041512;28;20193;-59
2021/03/09 20:48:55;;;;;;;6.13;1.40;;;;;;;;;;5041863;28;20964;-59
2021/03/09 20:51:22;;;;;;;0.20;0.20;;;;;;;;;;5042230;28;20178;-59
2021/03/09 20:53:49;;;;;;;4.97;4.83;;;;;;;;;;5041278;28;20188;-59
2021/03/09 20:56:16;;;;;;;0.33;0.33;;;;;;;;;;5040618;28;20185;-59
2021/03/09 20:58:43;;;;;;;0.17;0.17;;;;;;;;;;5039187;28;20194;-60
2021/03/09 21:01:10;;;;;;;0.10;0.10;;;;;;;;;;5040373;28;20193;-59
2021/03/09 21:03:37;;;;;;;0.10;0.10;;;;;;;;;;5041106;28;20185;-59
2021/03/09 21:06:04;;;;;;;0.10;0.10;;;;;;;;;;5040134;28;20526;-60
2021/03/09 21:08:31;;;;;;;0.10;0.10;;;;;;;;;;5038681;28;20210;-60
2021/03/09 21:10:58;;;;;;;1.70;0.63;;;;;;;;;;5037587;28;20186;-59
2021/03/09 21:13:25;;;;;;;0.10;0.10;;;;;;;;;;5033084;28;20275;-58
2021/03/09 21:15:53;;;;;;;0.87;0.87;;;;;;;;;;5034405;28;20210;-58
2021/03/09 21:18:22;;;;;;;0.13;0.13;;;;;;;;;;5029510;28;20236;-58
2021/03/09 21:20:50;;;;;;;0.00;0.00;;;;;;;;;;5032381;28;20186;-58
2021/03/09 21:23:17;;;;;;;0.03;0.03;;;;;;;;;;5032243;28;20183;-58
2021/03/09 21:25:44;;;;;;;0.00;0.00;;;;;;;;;;5029663;28;20270;-58
2021/03/09 21:28:10;;;;;;;0.00;0.00;;;;;;;;;;5029959;28;20214;-60
2021/03/09 21:30:38;;;;;;;0.00;0.00;;;;;;;;;;5031262;28;20633;-58
2021/03/09 21:33:05;;;;;;;2.33;2.20;;;;;;;;;;5031684;28;20178;-59
2021/03/09 21:35:32;;;;;;;0.00;0.00;;;;;;;;;;5030494;28;20183;-59
2021/03/09 21:37:58;;;;;;;0.43;0.43;;;;;;;;;;5030896;28;20190;-58
2021/03/09 21:40:25;;;;;;;0.00;0.00;;;;;;;;;;5033120;28;21931;-59
2021/03/09 21:42:51;;;;;;;0.40;0.30;;;;;;;;;;5034438;28;20187;-59
2021/03/09 21:45:18;;;;;;;1.43;0.60;;;;;;;;;;5028253;28;20219;-58
2021/03/09 21:47:45;;;;;;;0.00;0.00;;;;;;;;;;5032598;28;20222;-59
2021/03/09 21:50:11;;;;;;;0.00;0.00;;;;;;;;;;5030664;28;20450;-58
2021/03/09 21:52:38;;;;;;;0.07;0.07;;;;;;;;;;5033554;28;20171;-59
2021/03/09 21:55:05;;;;;;;0.10;0.10;;;;;;;;;;5029776;28;20214;-59
2021/03/09 21:57:31;;;;;;;0.00;0.00;;;;;;;;;;5030947;28;20191;-60
2021/03/09 21:59:59;;;;;;;4.43;0.87;;;;;;;;;;5037009;28;20189;-60
2021/03/09 22:02:26;;;;;;;0.23;0.23;;;;;;;;;;5039515;28;20723;-60
2021/03/09 22:04:52;;;;;;;0.77;0.27;;;;;;;;;;5039006;28;20644;-61
2021/03/09 22:07:23;;;;;;;0.00;0.00;;;;;;;;;;5039534;28;20806;-61
2021/03/09 22:09:51;;;;;;;0.00;0.00;;;;;;;;;;5039186;28;20368;-60
2021/03/09 22:12:18;;;;;;;0.80;0.80;;;;;;;;;;5043988;28;20187;-61
2021/03/09 22:14:45;;;;;;;1.30;1.20;;;;;;;;;;5043621;28;20187;-60
2021/03/09 22:17:12;;;;;;;0.10;0.10;;;;;;;;;;5044178;28;20183;-61
2021/03/09 22:19:41;;;;;;;0.00;0.00;;;;;;;;;;5048091;28;21123;-61
2021/03/09 22:22:07;;;;;;;5.70;2.33;;;;;;;;;;5043681;28;21061;-60
2021/03/09 22:24:39;;;;;;;0.00;0.00;;;;;;;;;;5043231;28;20228;-61
2021/03/09 22:27:05;;;;;;;1.70;0.53;;;;;;;;;;5048660;28;20198;-61
2021/03/09 22:29:32;;;;;;;0.20;0.20;;;;;;;;;;5044022;28;20226;-61
2021/03/09 22:31:59;;;;;;;0.67;0.67;;;;;;;;;;5042912;28;20262;-60
2021/03/09 22:34:25;;;;;;;2.23;0.67;;;;;;;;;;5043917;28;20235;-61
2021/03/09 22:36:52;;;;;;;0.30;0.30;;;;;;;;;;5043153;28;20210;-61
2021/03/09 22:39:24;;;;;;;0.53;0.07;;;;;;;;;;5042779;28;20320;-61
2021/03/09 22:41:53;;;;;;;0.20;0.20;;;;;;;;;;5043771;28;20187;-61
2021/03/09 22:44:19;;;;;;;0.90;0.90;;;;;;;;;;5043149;28;20673;-60
2021/03/09 22:46:46;;;;;;;0.10;0.10;;;;;;;;;;5043775;28;20197;-61
2021/03/09 22:49:12;;;;;;;0.87;0.40;;;;;;;;;;5041944;28;20623;-61
2021/03/09 22:51:39;;;;;;;6.10;0.17;;;;;;;;;;5041940;28;20312;-61
2021/03/09 22:54:06;;;;;;;0.07;0.07;;;;;;;;;;5043959;28;20179;-61
2021/03/09 22:56:32;;;;;;;0.10;0.10;;;;;;;;;;5039583;28;20183;-61
2021/03/09 22:59:01;;;;;;;3.20;0.30;;;;;;;;;;5042098;28;20184;-60
2021/03/09 23:01:28;;;;;;;0.10;0.10;;;;;;;;;;5034945;28;21032;-60
2021/03/09 23:03:54;;;;;;;0.20;0.20;;;;;;;;;;5029712;28;20817;-60
2021/03/09 23:06:21;;;;;;;0.63;0.63;;;;;;;;;;5036668;28;20187;-60
2021/03/09 23:08:50;;;;;;;0.00;0.00;;;;;;;;;;5032756;28;20199;-60
2021/03/09 23:11:22;;;;;;;0.03;0.03;;;;;;;;;;5032606;28;20198;-61
2021/03/09 23:13:50;;;;;;;0.00;0.00;;;;;;;;;;5029379;28;21819;-60
2021/03/09 23:16:17;;;;;;;0.10;0.10;;;;;;;;;;5029210;28;20180;-60
2021/03/09 23:18:43;;;;;;;0.23;0.23;;;;;;;;;;5024923;28;21088;-60
2021/03/09 23:21:10;;;;;;;0.37;0.37;;;;;;;;;;5040542;28;20179;-60
2021/03/09 23:23:38;;;;;;;0.10;0.10;;;;;;;;;;5041301;28;20194;-60
2021/03/09 23:26:05;;;;;;;0.10;0.10;;;;;;;;;;5040717;28;20203;-60
2021/03/09 23:28:31;;;;;;;0.00;0.00;;;;;;;;;;5040712;28;20210;-60
2021/03/09 23:31:00;;;;;;;0.60;0.60;;;;;;;;;;5041272;28;20202;-60